Time;durP1;ratioP1;P1;durP2;ratioP2;P2;SDS_P1;SDS_P2;PMS_P1;PMS_P2;Temp;Humidity;BMP_temperature;BMP_pressure;BME280_temperature;BME280_humidity;BME280_pressure;Samples;Min_cycle;Max_cycle;Signal;HPM_P1;HPM_P2
2023/06/19 00:01:30;;;;;;;11.45;7.90;;;20.40;99.90;;;;;;5050949;28;20057;-83
2023/06/19 00:04:16;;;;;;;11.25;8.43;;;20.50;99.90;;;;;;5033026;28;20558;-85
2023/06/19 00:07:03;;;;;;;10.48;7.97;;;20.40;99.90;;;;;;5032352;28;20462;-84
2023/06/19 00:09:49;;;;;;;11.55;7.68;;;20.40;99.90;;;;;;5050163;28;20088;-80
2023/06/19 00:12:36;;;;;;;10.40;7.72;;;20.50;99.90;;;;;;5051892;28;20049;-77
2023/06/19 00:15:22;;;;;;;11.57;7.88;;;20.40;99.90;;;;;;5052827;28;20095;-83
2023/06/19 00:18:09;;;;;;;10.43;8.05;;;20.40;99.90;;;;;;5051406;28;20479;-78
2023/06/19 00:20:56;;;;;;;11.80;7.63;;;20.40;99.90;;;;;;5026597;28;20151;-80
2023/06/19 00:23:42;;;;;;;9.90;6.82;;;20.40;99.90;;;;;;5038316;28;20450;-82
2023/06/19 00:26:28;;;;;;;9.50;7.43;;;20.40;99.90;;;;;;5053348;28;20076;-87
2023/06/19 00:29:14;;;;;;;8.00;6.15;;;20.40;99.90;;;;;;5051435;28;20385;-83
2023/06/19 00:32:00;;;;;;;11.50;6.55;;;20.40;99.90;;;;;;5055191;28;20052;-83
2023/06/19 00:34:46;;;;;;;9.57;6.22;;;20.40;99.90;;;;;;5036589;28;20132;-82
2023/06/19 00:37:32;;;;;;;9.77;6.03;;;20.40;99.90;;;;;;5053367;28;20053;-85
2023/06/19 00:40:26;;;;;;;9.65;5.95;;;20.40;99.90;;;;;;5049449;28;20512;-80
2023/06/19 00:43:13;;;;;;;8.83;6.37;;;20.40;99.90;;;;;;5033469;28;20053;-88
2023/06/19 00:46:00;;;;;;;9.45;5.63;;;20.50;99.90;;;;;;5035348;28;20617;-87
2023/06/19 00:48:46;;;;;;;9.43;6.53;;;20.40;99.90;;;;;;5032591;28;20056;-80
2023/06/19 00:51:33;;;;;;;10.00;6.60;;;20.50;99.90;;;;;;5033932;28;20091;-90
2023/06/19 00:54:19;;;;;;;7.38;5.72;;;20.50;99.90;;;;;;5032273;28;20053;-87
2023/06/19 00:57:07;;;;;;;7.70;5.28;;;20.50;99.90;;;;;;5037131;28;20060;-83
2023/06/19 00:59:54;;;;;;;7.97;5.95;;;20.50;99.90;;;;;;5036224;28;20072;-82
2023/06/19 01:02:41;;;;;;;9.93;6.38;;;20.50;99.90;;;;;;5050060;28;20080;-85
2023/06/19 01:05:27;;;;;;;11.55;6.15;;;20.50;99.90;;;;;;5032804;28;20049;-88
2023/06/19 01:08:28;;;;;;;7.50;5.45;;;20.50;99.90;;;;;;5052232;28;20147;-91
2023/06/19 01:11:19;;;;;;;9.80;6.28;;;20.50;99.90;;;;;;5051881;28;20493;-86
2023/06/19 01:14:14;;;;;;;9.50;6.38;;;20.50;99.90;;;;;;5031928;28;20156;-85
2023/06/19 01:17:00;;;;;;;9.73;6.07;;;20.50;99.90;;;;;;5052118;28;20053;-79
2023/06/19 01:19:47;;;;;;;9.35;6.00;;;20.50;99.90;;;;;;5049659;28;20691;-80
2023/06/19 01:22:33;;;;;;;10.32;5.97;;;20.50;99.90;;;;;;5049691;28;20053;-87
2023/06/19 01:25:19;;;;;;;7.43;5.70;;;20.50;99.90;;;;;;5050994;28;20044;-85
2023/06/19 01:28:09;;;;;;;9.20;5.72;;;20.50;99.90;;;;;;5051162;28;20052;-86
2023/06/19 01:30:58;;;;;;;8.93;5.90;;;20.60;99.90;;;;;;5031321;28;20143;-82
2023/06/19 01:33:45;;;;;;;9.43;5.93;;;20.60;99.90;;;;;;5052856;28;20047;-88
2023/06/19 01:36:32;;;;;;;8.85;6.07;;;20.60;99.90;;;;;;5049207;28;20045;-82
2023/06/19 01:39:19;;;;;;;9.65;6.18;;;20.60;99.90;;;;;;5048584;28;20106;-80
2023/06/19 01:42:09;;;;;;;10.18;5.68;;;20.60;99.90;;;;;;5048275;28;20672;-80
2023/06/19 01:44:55;;;;;;;9.68;6.00;;;20.60;99.90;;;;;;5048495;28;20485;-87
2023/06/19 01:47:41;;;;;;;11.18;6.30;;;20.60;99.90;;;;;;5050204;28;20055;-81
2023/06/19 01:50:27;;;;;;;8.70;5.90;;;20.60;99.90;;;;;;5050366;28;20412;-80
2023/06/19 01:53:14;;;;;;;11.30;6.60;;;20.60;99.90;;;;;;5030746;28;20051;-83
2023/06/19 01:56:01;;;;;;;8.27;5.97;;;20.60;99.90;;;;;;5030570;28;20515;-80
2023/06/19 01:58:47;;;;;;;10.15;6.00;;;20.70;99.90;;;;;;5031552;28;20061;-81
2023/06/19 02:01:33;;;;;;;8.25;6.15;;;20.60;99.90;;;;;;5049556;28;20053;-81
2023/06/19 02:04:19;;;;;;;8.52;6.10;;;20.70;99.90;;;;;;5048910;28;20049;-84
2023/06/19 02:07:05;;;;;;;9.35;6.63;;;20.70;99.90;;;;;;5037503;28;20064;-80
2023/06/19 02:09:51;;;;;;;8.85;5.97;;;20.70;99.90;;;;;;5052132;28;20044;-83
2023/06/19 02:12:37;;;;;;;10.00;5.97;;;20.70;99.90;;;;;;5048414;28;20504;-81
2023/06/19 02:15:23;;;;;;;8.82;5.85;;;20.70;99.90;;;;;;5049610;28;20088;-81
2023/06/19 02:18:09;;;;;;;10.80;6.82;;;20.70;99.90;;;;;;5048826;28;20535;-81
2023/06/19 02:20:55;;;;;;;10.80;6.50;;;20.70;99.90;;;;;;5048462;28;20053;-85
2023/06/19 02:23:41;;;;;;;10.07;6.63;;;20.70;99.90;;;;;;5022516;28;20626;-83
2023/06/19 02:26:29;;;;;;;8.80;6.47;;;20.70;99.90;;;;;;5052484;28;20408;-86
2023/06/19 02:29:15;;;;;;;8.45;6.13;;;20.70;99.90;;;;;;5051176;28;20394;-89
2023/06/19 02:32:02;;;;;;;9.27;6.07;;;20.70;99.90;;;;;;5031601;28;20052;-82
2023/06/19 02:34:48;;;;;;;8.88;6.47;;;20.70;99.90;;;;;;5047765;28;20063;-83
2023/06/19 02:37:35;;;;;;;10.80;6.22;;;20.70;99.90;;;;;;5048559;28;20049;-82
2023/06/19 02:40:21;;;;;;;10.32;6.55;;;20.70;99.90;;;;;;5032377;28;20345;-87
2023/06/19 02:43:08;;;;;;;13.20;6.43;;;20.70;99.90;;;;;;5050066;28;20177;-83
2023/06/19 02:45:54;;;;;;;10.48;7.30;;;20.70;99.90;;;;;;5048036;28;20508;-83
2023/06/19 02:48:40;;;;;;;9.32;6.80;;;20.70;99.90;;;;;;5030172;28;20470;-82
2023/06/19 02:51:26;;;;;;;11.10;6.90;;;20.60;99.90;;;;;;5052527;28;20131;-83
2023/06/19 02:54:12;;;;;;;11.73;6.82;;;20.60;99.90;;;;;;5052025;28;20088;-86
2023/06/19 02:56:58;;;;;;;12.80;7.38;;;20.60;99.90;;;;;;5051930;28;20053;-82
2023/06/19 02:59:45;;;;;;;11.27;7.28;;;20.60;99.90;;;;;;5037031;28;20084;-86
2023/06/19 03:02:31;;;;;;;12.20;7.43;;;20.60;99.90;;;;;;5052651;28;20060;-88
2023/06/19 03:05:17;;;;;;;11.70;6.63;;;20.50;99.90;;;;;;5039028;28;20203;-85
2023/06/19 03:08:03;;;;;;;12.65;7.13;;;20.50;99.90;;;;;;5052061;28;20103;-81
2023/06/19 03:10:49;;;;;;;10.60;7.28;;;20.50;99.90;;;;;;5051572;28;20060;-81
2023/06/19 03:13:50;;;;;;;10.50;6.82;;;20.50;99.90;;;;;;5034446;28;20049;-85
2023/06/19 03:16:36;;;;;;;9.60;6.90;;;20.50;99.90;;;;;;5052470;28;20077;-79
2023/06/19 03:19:22;;;;;;;11.68;7.03;;;20.50;99.90;;;;;;5034694;28;20127;-89
2023/06/19 03:22:08;;;;;;;13.82;7.00;;;20.50;99.90;;;;;;5040325;28;20076;-80
2023/06/19 03:24:54;;;;;;;10.35;7.28;;;20.40;99.90;;;;;;5041762;28;20150;-82
2023/06/19 03:27:40;;;;;;;10.07;7.72;;;20.40;99.90;;;;;;5062228;28;20053;-80
2023/06/19 03:30:26;;;;;;;12.60;7.43;;;20.40;99.90;;;;;;5035185;28;20056;-80
2023/06/19 03:33:12;;;;;;;12.65;7.45;;;20.40;99.90;;;;;;5051252;28;20171;-80
2023/06/19 03:35:58;;;;;;;10.75;6.97;;;20.40;99.90;;;;;;5050843;28;20087;-80
2023/06/19 03:38:44;;;;;;;13.43;6.93;;;20.40;99.90;;;;;;5033137;28;20040;-81
2023/06/19 03:41:30;;;;;;;9.30;6.63;;;20.40;99.90;;;;;;5050753;28;20055;-80
2023/06/19 03:44:15;;;;;;;13.48;7.43;;;20.40;99.90;;;;;;5051792;28;20049;-80
2023/06/19 03:47:01;;;;;;;9.85;6.97;;;20.40;99.90;;;;;;5050664;28;20045;-80
2023/06/19 03:49:48;;;;;;;11.63;6.05;;;20.40;99.90;;;;;;5037542;28;20626;-80
2023/06/19 03:52:34;;;;;;;8.80;6.40;;;20.40;99.90;;;;;;5055076;28;20401;-80
2023/06/19 03:55:20;;;;;;;8.77;6.20;;;20.40;99.90;;;;;;5050915;28;20045;-80
2023/06/19 03:58:06;;;;;;;10.38;6.00;;;20.40;99.90;;;;;;5032593;28;20049;-80
2023/06/19 04:00:52;;;;;;;9.50;6.78;;;20.50;99.90;;;;;;5050555;28;20147;-84
2023/06/19 04:03:38;;;;;;;10.93;6.68;;;20.40;99.90;;;;;;5051420;28;20053;-81
2023/06/19 04:06:24;;;;;;;10.80;7.28;;;20.40;99.90;;;;;;5050394;28;20059;-80
2023/06/19 04:09:10;;;;;;;10.27;6.85;;;20.40;99.90;;;;;;5050316;28;20368;-79
2023/06/19 04:11:56;;;;;;;9.20;7.10;;;20.40;99.90;;;;;;5050539;28;20389;-81
2023/06/19 04:14:42;;;;;;;9.95;6.38;;;20.50;99.90;;;;;;5050841;28;20049;-82
2023/06/19 04:17:28;;;;;;;9.15;6.20;;;20.50;99.90;;;;;;5051540;28;20048;-87
2023/06/19 04:20:14;;;;;;;9.50;6.55;;;20.40;99.90;;;;;;5051393;28;20135;-85
2023/06/19 04:23:00;;;;;;;9.88;6.32;;;20.50;99.90;;;;;;5038218;28;20049;-80
2023/06/19 04:25:46;;;;;;;10.25;7.13;;;20.50;99.90;;;;;;5050923;28;20049;-80
2023/06/19 04:28:32;;;;;;;11.82;6.53;;;20.40;99.90;;;;;;5050505;28;20068;-83
2023/06/19 04:31:19;;;;;;;9.85;6.65;;;20.40;99.90;;;;;;5049447;28;20045;-81
2023/06/19 04:34:05;;;;;;;9.20;6.78;;;20.30;99.90;;;;;;5050087;28;20048;-81
2023/06/19 04:36:51;;;;;;;11.18;6.28;;;20.30;99.90;;;;;;5050003;28;20056;-80
2023/06/19 04:39:37;;;;;;;6.82;5.25;;;20.30;99.90;;;;;;5032338;28;20638;-81
2023/06/19 04:42:24;;;;;;;8.63;4.75;;;20.20;99.90;;;;;;5032632;28;20048;-83
2023/06/19 04:45:11;;;;;;;7.72;4.10;;;20.20;99.90;;;;;;5049509;28;20068;-81
2023/06/19 04:47:57;;;;;;;7.40;3.80;;;20.30;99.90;;;;;;5035206;28;20041;-82
2023/06/19 04:50:43;;;;;;;8.88;3.60;;;20.20;99.90;;;;;;5049612;28;20053;-81
2023/06/19 04:53:29;;;;;;;8.40;3.97;;;20.30;99.90;;;;;;5050326;28;20478;-82
2023/06/19 04:56:15;;;;;;;5.57;3.65;;;20.20;99.90;;;;;;5049972;28;20048;-81
2023/06/19 04:59:02;;;;;;;10.80;3.58;;;20.20;99.90;;;;;;5048728;28;20041;-81
2023/06/19 05:01:48;;;;;;;6.55;3.90;;;20.30;99.90;;;;;;5049499;28;20118;-83
2023/06/19 05:04:34;;;;;;;6.05;2.90;;;20.30;99.90;;;;;;5049955;28;20056;-86
2023/06/19 05:07:20;;;;;;;5.53;3.40;;;20.30;99.90;;;;;;5049576;28;20076;-82
2023/06/19 05:10:07;;;;;;;4.70;3.00;;;20.40;99.90;;;;;;5019548;28;20057;-82
2023/06/19 05:12:53;;;;;;;5.32;3.10;;;20.50;99.90;;;;;;5031945;28;20052;-83
2023/06/19 05:15:39;;;;;;;7.25;3.88;;;20.50;99.90;;;;;;5038672;28;20103;-85
2023/06/19 05:18:25;;;;;;;6.57;2.80;;;20.60;99.90;;;;;;5049448;28;20061;-89
2023/06/19 05:21:11;;;;;;;5.68;3.22;;;20.80;99.90;;;;;;5049274;28;20106;-84
2023/06/19 05:23:57;;;;;;;6.65;3.55;;;20.80;99.90;;;;;;5049056;28;20164;-81
2023/06/19 05:26:43;;;;;;;9.95;3.25;;;20.80;99.90;;;;;;5034530;28;20081;-79
2023/06/19 05:29:30;;;;;;;5.25;3.08;;;20.90;99.90;;;;;;5049983;28;20353;-79
2023/06/19 05:32:16;;;;;;;6.75;3.60;;;20.90;99.90;;;;;;5034157;28;20056;-87
2023/06/19 05:35:02;;;;;;;7.20;3.60;;;20.90;99.90;;;;;;5050726;28;20058;-82
2023/06/19 05:37:48;;;;;;;5.38;3.70;;;20.90;99.90;;;;;;5050170;28;20045;-84
2023/06/19 05:40:34;;;;;;;8.18;3.58;;;21.00;99.90;;;;;;5052129;28;20487;-87
2023/06/19 05:43:21;;;;;;;7.50;4.13;;;21.00;99.90;;;;;;5050944;28;20141;-84
2023/06/19 05:46:07;;;;;;;7.95;4.15;;;21.00;99.90;;;;;;5049474;28;20136;-82
2023/06/19 05:48:54;;;;;;;6.30;3.97;;;21.00;99.90;;;;;;5049076;28;20139;-84
2023/06/19 05:51:40;;;;;;;6.50;4.03;;;21.00;99.90;;;;;;5034052;28;20041;-85
2023/06/19 05:54:26;;;;;;;8.70;4.55;;;20.90;99.90;;;;;;5049616;28;20502;-87
2023/06/19 05:57:14;;;;;;;8.90;5.00;;;20.90;99.90;;;;;;5030400;28;20057;-80
2023/06/19 06:00:01;;;;;;;9.50;4.78;;;20.90;99.90;;;;;;5048800;28;20423;-82
2023/06/19 06:02:46;;;;;;;7.47;5.05;;;20.90;99.90;;;;;;5049181;28;20051;-83
2023/06/19 06:05:32;;;;;;;8.40;5.03;;;20.80;99.90;;;;;;5047872;28;20059;-80
2023/06/19 06:08:19;;;;;;;9.48;4.43;;;20.80;99.90;;;;;;5031348;28;20052;-88
2023/06/19 06:11:04;;;;;;;7.93;4.88;;;20.80;99.90;;;;;;5053921;28;20052;-84
2023/06/19 06:13:50;;;;;;;10.35;5.47;;;20.90;99.90;;;;;;5030503;28;20101;-80
2023/06/19 06:16:36;;;;;;;10.07;6.55;;;21.00;99.90;;;;;;5049106;28;20080;-79
2023/06/19 06:19:23;;;;;;;11.93;6.28;;;21.00;99.90;;;;;;5030677;28;20057;-83
2023/06/19 06:22:09;;;;;;;10.93;7.60;;;21.10;99.90;;;;;;5030810;28;20067;-85
2023/06/19 06:24:55;;;;;;;13.80;8.23;;;21.10;99.90;;;;;;5030580;28;20049;-84
2023/06/19 06:27:42;;;;;;;14.65;9.13;;;21.10;99.90;;;;;;5052389;28;20106;-86
2023/06/19 06:30:28;;;;;;;12.32;8.88;;;21.00;99.90;;;;;;5052441;28;20417;-88
2023/06/19 06:33:14;;;;;;;16.77;12.85;;;21.10;99.90;;;;;;5038128;28;20138;-82
2023/06/19 06:36:00;;;;;;;17.83;11.38;;;21.00;99.90;;;;;;5052433;28;20049;-89
2023/06/19 06:38:46;;;;;;;16.08;11.23;;;20.90;99.90;;;;;;5053443;28;20053;-86
2023/06/19 06:41:32;;;;;;;16.75;12.73;;;20.90;99.90;;;;;;5054845;28;20049;-87
2023/06/19 06:44:18;;;;;;;20.45;14.52;;;20.90;99.90;;;;;;5054886;28;20073;-84
2023/06/19 06:47:05;;;;;;;24.38;15.98;;;20.80;99.90;;;;;;5053114;28;20041;-90
2023/06/19 06:49:51;;;;;;;29.30;23.23;;;20.80;99.90;;;;;;5052782;28;20420;-85
2023/06/19 06:52:38;;;;;;;30.48;24.63;;;20.80;99.90;;;;;;5054517;28;20128;-88
2023/06/19 06:55:24;;;;;;;33.80;24.60;;;20.90;99.90;;;;;;5023164;28;20059;-84
2023/06/19 06:58:12;;;;;;;32.75;24.58;;;21.00;99.90;;;;;;5053737;28;20380;-88
2023/06/19 07:00:58;;;;;;;28.63;22.98;;;21.20;99.90;;;;;;5020710;28;20057;-88
2023/06/19 07:03:43;;;;;;;30.52;23.13;;;21.30;99.90;;;;;;5052847;28;20080;-84
2023/06/19 07:06:29;;;;;;;31.23;22.25;;;21.40;99.90;;;;;;5038761;28;20049;-84
2023/06/19 07:09:16;;;;;;;35.03;25.27;;;21.40;99.90;;;;;;5055758;28;20056;-86
2023/06/19 07:12:08;;;;;;;35.20;24.55;;;21.30;99.90;;;;;;5052615;28;20507;-85
2023/06/19 07:14:55;;;;;;;34.72;25.00;;;21.20;99.90;;;;;;5034980;28;20107;-89
2023/06/19 07:17:41;;;;;;;33.50;25.50;;;21.20;99.90;;;;;;5053326;28;20076;-83
2023/06/19 07:20:27;;;;;;;34.55;25.85;;;21.10;99.90;;;;;;5038785;28;20060;-87
2023/06/19 07:23:14;;;;;;;35.10;26.27;;;21.10;99.90;;;;;;5037652;28;20056;-84
2023/06/19 07:26:00;;;;;;;37.05;26.73;;;21.10;99.90;;;;;;5051293;28;20449;-87
2023/06/19 07:28:46;;;;;;;35.92;24.08;;;21.20;99.90;;;;;;5051367;28;20056;-85
2023/06/19 07:31:32;;;;;;;31.13;21.88;;;21.20;99.90;;;;;;5034358;28;20110;-82
2023/06/19 07:34:18;;;;;;;34.70;21.55;;;21.10;99.90;;;;;;5038270;28;20053;-85
2023/06/19 07:37:05;;;;;;;33.78;22.02;;;21.00;99.90;;;;;;5032921;28;20045;-85
2023/06/19 07:39:51;;;;;;;33.05;21.02;;;20.80;99.90;;;;;;5050598;28;20519;-85
2023/06/19 07:42:37;;;;;;;36.40;22.40;;;20.70;99.90;;;;;;5053818;28;20052;-85
2023/06/19 07:45:23;;;;;;;32.30;21.25;;;20.50;99.90;;;;;;5052392;28;20049;-85
2023/06/19 07:48:09;;;;;;;34.50;23.17;;;20.30;99.90;;;;;;5034948;28;20048;-89
2023/06/19 07:50:56;;;;;;;35.63;22.92;;;20.30;99.90;;;;;;5024845;28;20069;-82
2023/06/19 07:53:43;;;;;;;38.35;23.02;;;20.20;99.90;;;;;;5039573;28;20836;-83
2023/06/19 07:56:29;;;;;;;36.55;23.17;;;20.10;99.90;;;;;;5037998;28;20075;-81
2023/06/19 07:59:16;;;;;;;39.10;22.95;;;20.00;99.90;;;;;;5055033;28;20079;-89
2023/06/19 08:02:04;;;;;;;39.47;23.60;;;19.90;99.90;;;;;;5054669;28;20187;-84
2023/06/19 08:04:50;;;;;;;39.90;23.60;;;19.80;99.90;;;;;;5053723;28;20187;-80
2023/06/19 08:07:37;;;;;;;37.53;23.48;;;19.70;99.90;;;;;;5033673;28;20053;-88
2023/06/19 08:10:23;;;;;;;39.25;25.27;;;19.60;99.90;;;;;;5051372;28;20152;-89
2023/06/19 08:13:11;;;;;;;36.63;22.52;;;19.70;99.90;;;;;;5051275;28;20048;-89
2023/06/19 08:15:57;;;;;;;39.70;24.83;;;19.60;99.90;;;;;;5051655;28;20041;-90
2023/06/19 08:18:44;;;;;;;36.42;22.38;;;19.50;99.90;;;;;;5034418;28;20057;-82
2023/06/19 08:21:30;;;;;;;36.72;22.83;;;19.50;99.90;;;;;;5052897;28;20049;-91
2023/06/19 08:24:17;;;;;;;39.83;23.73;;;19.40;99.90;;;;;;5053178;28;20079;-90
2023/06/19 08:27:04;;;;;;;39.03;22.42;;;19.40;99.90;;;;;;5056561;28;20053;-82
2023/06/19 08:29:52;;;;;;;35.30;19.08;;;19.30;99.90;;;;;;5045278;28;20053;-88
2023/06/19 08:32:38;;;;;;;30.77;19.13;;;19.30;99.90;;;;;;5022174;28;20071;-91
2023/06/19 08:35:24;;;;;;;27.63;16.10;;;19.30;99.90;;;;;;5034541;28;20041;-91
2023/06/19 08:38:10;;;;;;;24.92;15.77;;;19.30;99.90;;;;;;5033267;28;20045;-84
2023/06/19 08:40:56;;;;;;;24.15;15.57;;;19.30;99.90;;;;;;5032002;28;20064;-85
2023/06/19 08:43:42;;;;;;;26.10;16.95;;;19.20;99.90;;;;;;5034346;28;20413;-85
2023/06/19 08:46:29;;;;;;;30.42;17.70;;;19.20;99.90;;;;;;5032378;28;20053;-90
2023/06/19 08:49:15;;;;;;;21.27;13.07;;;19.20;99.90;;;;;;5033042;28;20136;-93
2023/06/19 08:52:06;;;;;;;23.00;13.93;;;19.10;99.90;;;;;;5042271;28;20076;-84
2023/06/19 08:54:52;;;;;;;21.27;13.70;;;19.10;99.90;;;;;;5039193;28;20056;-79
2023/06/19 08:57:39;;;;;;;21.08;14.45;;;19.10;99.90;;;;;;5019913;28;20057;-79
2023/06/19 09:00:28;;;;;;;18.80;13.23;;;19.10;99.90;;;;;;5017584;28;20057;-81
2023/06/19 09:03:21;;;;;;;20.23;14.00;;;19.10;99.90;;;;;;5031354;28;20578;-79
2023/06/19 09:06:08;;;;;;;20.30;13.95;;;19.10;99.90;;;;;;5030829;28;20127;-78
2023/06/19 09:09:00;;;;;;;23.77;14.88;;;19.00;99.90;;;;;;5031127;28;20072;-80
2023/06/19 09:12:06;;;;;;;19.75;14.73;;;19.10;99.90;;;;;;5031826;28;20140;-86
2023/06/19 09:14:52;;;;;;;23.27;16.00;;;19.10;99.90;;;;;;5035631;28;20491;-85
2023/06/19 09:17:38;;;;;;;26.48;17.95;;;19.10;99.90;;;;;;5033653;28;20053;-84
2023/06/19 09:20:28;;;;;;;33.85;17.92;;;19.10;99.90;;;;;;5035560;28;20188;-86
2023/06/19 09:23:14;;;;;;;25.05;14.73;;;19.00;99.90;;;;;;5035408;28;20383;-91
2023/06/19 09:26:00;;;;;;;24.25;15.90;;;19.10;99.90;;;;;;5037884;28;20061;-84
2023/06/19 09:28:46;;;;;;;26.42;16.70;;;19.10;99.90;;;;;;5042841;28;20045;-91
2023/06/19 09:31:33;;;;;;;19.77;14.63;;;19.10;99.90;;;;;;5040775;28;20053;-93
2023/06/19 09:34:20;;;;;;;23.52;14.77;;;19.10;99.90;;;;;;5039825;28;20049;-89
2023/06/19 09:37:07;;;;;;;21.67;15.98;;;19.20;99.90;;;;;;5041162;28;20049;-86
2023/06/19 09:39:55;;;;;;;22.25;14.43;;;19.20;99.90;;;;;;5028772;28;20077;-88
2023/06/19 09:42:43;;;;;;;27.10;15.13;;;19.40;99.90;;;;;;5046603;28;20049;-92
2023/06/19 09:45:30;;;;;;;18.30;12.45;;;19.80;99.90;;;;;;5038065;28;20053;-89
2023/06/19 09:48:23;;;;;;;21.33;13.15;;;20.00;99.90;;;;;;5042834;28;20053;-92
2023/06/19 09:51:20;;;;;;;20.40;12.85;;;20.10;99.90;;;;;;5022950;28;20053;-87
2023/06/19 09:54:07;;;;;;;19.30;14.35;;;20.30;99.90;;;;;;5038130;28;20061;-82
2023/06/19 09:56:58;;;;;;;18.63;13.90;;;20.10;99.90;;;;;;5038116;28;20072;-83
2023/06/19 09:59:49;;;;;;;21.75;13.98;;;20.10;99.90;;;;;;5035091;28;20057;-86
2023/06/19 10:02:38;;;;;;;22.92;14.40;;;19.90;99.90;;;;;;5036404;28;20049;-92
2023/06/19 10:05:31;;;;;;;26.13;14.30;;;19.90;99.90;;;;;;5024885;28;20519;-85
2023/06/19 10:08:31;;;;;;;18.17;13.50;;;19.90;99.90;;;;;;5039358;28;20525;-84
2023/06/19 10:11:18;;;;;;;17.67;12.30;;;19.80;99.90;;;;;;5038294;28;20107;-86
2023/06/19 10:14:07;;;;;;;17.02;12.75;;;19.80;99.90;;;;;;5039972;28;20045;-91
2023/06/19 10:16:53;;;;;;;23.30;13.85;;;20.00;99.90;;;;;;5038616;28;20080;-86
2023/06/19 10:19:49;;;;;;;20.52;12.95;;;20.00;99.90;;;;;;5040917;28;20112;-87
2023/06/19 10:22:35;;;;;;;21.95;14.57;;;20.00;99.90;;;;;;5037938;28;20064;-81
2023/06/19 10:25:23;;;;;;;21.48;14.57;;;19.90;99.90;;;;;;5038327;28;20096;-80
2023/06/19 10:28:23;;;;;;;23.85;15.23;;;19.90;99.90;;;;;;5040684;28;20084;-81
2023/06/19 10:31:09;;;;;;;24.45;14.73;;;20.10;99.90;;;;;;5041835;28;20099;-84
2023/06/19 10:33:57;;;;;;;20.50;14.68;;;20.20;99.90;;;;;;5037577;28;20045;-88
2023/06/19 10:36:45;;;;;;;24.30;15.57;;;20.30;99.90;;;;;;5040477;28;20049;-83
2023/06/19 10:39:32;;;;;;;19.88;14.63;;;20.50;99.90;;;;;;5028844;28;20049;-83
2023/06/19 10:42:18;;;;;;;21.17;13.23;;;20.50;99.90;;;;;;5024451;28;20057;-81
2023/06/19 10:45:06;;;;;;;20.05;14.20;;;20.80;99.90;;;;;;5033478;28;20046;-83
2023/06/19 10:47:52;;;;;;;21.08;13.98;;;21.10;99.90;;;;;;5041448;28;20049;-81
2023/06/19 10:50:42;;;;;;;17.38;12.60;;;21.30;99.90;;;;;;5038242;28;20144;-79
2023/06/19 10:53:32;;;;;;;21.02;13.80;;;21.40;99.90;;;;;;5037352;28;20053;-82
2023/06/19 10:56:20;;;;;;;20.75;13.20;;;21.50;99.90;;;;;;5032865;28;20107;-84
2023/06/19 10:59:09;;;;;;;22.55;13.68;;;21.70;99.90;;;;;;5035360;28;20576;-85
2023/06/19 11:01:58;;;;;;;21.05;12.27;;;22.00;99.90;;;;;;5039776;28;20105;-82
2023/06/19 11:04:44;;;;;;;16.70;11.60;;;22.20;99.90;;;;;;5037497;28;20087;-81
2023/06/19 11:07:32;;;;;;;16.52;12.40;;;22.10;99.90;;;;;;5036923;28;20046;-81
2023/06/19 11:10:23;;;;;;;18.75;13.48;;;22.00;99.90;;;;;;5034328;28;20057;-82
2023/06/19 11:13:20;;;;;;;20.27;12.95;;;22.10;99.90;;;;;;5034749;28;20447;-86
2023/06/19 11:16:06;;;;;;;22.15;14.00;;;22.10;99.90;;;;;;5034649;28;20129;-86
2023/06/19 11:18:59;;;;;;;22.30;13.95;;;22.30;99.90;;;;;;5036852;28;20109;-84
2023/06/19 11:21:50;;;;;;;19.15;12.63;;;22.30;99.90;;;;;;5033999;28;20057;-83
2023/06/19 11:24:42;;;;;;;17.65;13.05;;;22.50;99.90;;;;;;5035215;28;20416;-85
2023/06/19 11:27:30;;;;;;;24.83;16.92;;;22.50;99.90;;;;;;5035324;28;20139;-81
2023/06/19 11:30:31;;;;;;;20.85;13.75;;;22.50;99.90;;;;;;5035417;28;20459;-83
2023/06/19 11:33:24;;;;;;;20.60;13.30;;;22.50;99.90;;;;;;5035495;28;20132;-81
2023/06/19 11:36:10;;;;;;;29.52;15.95;;;22.80;99.90;;;;;;5032648;28;20049;-82
2023/06/19 11:38:56;;;;;;;18.85;13.45;;;23.00;99.90;;;;;;5032748;28;20132;-78
2023/06/19 11:41:46;;;;;;;21.90;13.98;;;23.30;99.90;;;;;;5031019;28;20057;-82
2023/06/19 11:44:32;;;;;;;19.33;13.35;;;23.40;99.90;;;;;;5031732;28;20136;-85
2023/06/19 11:47:18;;;;;;;21.30;15.38;;;23.50;99.90;;;;;;5032803;28;20053;-80
2023/06/19 11:50:06;;;;;;;20.77;13.10;;;23.40;99.90;;;;;;5032135;28;20556;-82
2023/06/19 11:52:52;;;;;;;24.35;15.02;;;23.50;99.90;;;;;;5031580;28;20567;-80
2023/06/19 11:55:38;;;;;;;23.73;15.38;;;23.50;99.90;;;;;;5033744;28;20068;-85
2023/06/19 11:58:24;;;;;;;23.33;16.20;;;23.30;99.90;;;;;;5033215;28;20057;-79
2023/06/19 12:01:10;;;;;;;19.35;13.23;;;23.70;99.90;;;;;;5030147;28;20053;-87
2023/06/19 12:03:56;;;;;;;17.40;11.98;;;23.60;99.90;;;;;;5032668;28;20053;-82
2023/06/19 12:06:42;;;;;;;18.00;11.40;;;23.80;99.90;;;;;;5029646;28;20088;-85
2023/06/19 12:09:28;;;;;;;18.52;11.27;;;24.10;99.90;;;;;;5031912;28;20081;-82
2023/06/19 12:12:14;;;;;;;17.20;12.75;;;24.00;99.90;;;;;;5034586;28;20053;-82
2023/06/19 12:15:00;;;;;;;15.27;11.40;;;24.00;99.90;;;;;;5034459;28;20720;-85
2023/06/19 12:17:47;;;;;;;18.23;10.60;;;24.00;99.90;;;;;;5032462;28;20128;-86
2023/06/19 12:20:33;;;;;;;12.07;8.63;;;24.20;99.90;;;;;;5032182;28;20092;-83
2023/06/19 12:23:19;;;;;;;11.48;8.15;;;24.00;99.90;;;;;;5030536;28;20067;-89
2023/06/19 12:26:05;;;;;;;11.93;8.50;;;23.90;99.70;;;;;;5029331;28;20136;-90
2023/06/19 12:28:51;;;;;;;11.95;8.77;;;24.30;99.90;;;;;;5032040;28;20045;-86
2023/06/19 12:31:37;;;;;;;15.45;8.38;;;24.20;99.80;;;;;;5030411;28;20084;-90
2023/06/19 12:34:24;;;;;;;11.05;7.80;;;24.70;99.20;;;;;;5031203;28;20045;-84
2023/06/19 12:37:10;;;;;;;16.05;8.35;;;24.60;98.80;;;;;;5033658;28;20539;-91
2023/06/19 12:39:56;;;;;;;8.98;7.03;;;25.20;99.00;;;;;;5038193;28;20148;-88
2023/06/19 12:42:43;;;;;;;8.63;5.72;;;25.00;98.50;;;;;;5039076;28;20045;-84
2023/06/19 12:45:29;;;;;;;10.32;6.82;;;25.40;98.70;;;;;;5040777;28;20088;-80
2023/06/19 12:48:17;;;;;;;10.02;6.80;;;25.50;97.90;;;;;;5038688;28;20106;-88
2023/06/19 12:51:03;;;;;;;10.18;7.32;;;25.70;97.50;;;;;;5030974;28;20140;-87
2023/06/19 12:53:49;;;;;;;10.98;6.50;;;26.10;97.10;;;;;;5030690;28;20094;-86
2023/06/19 12:56:35;;;;;;;8.90;6.15;;;26.40;96.60;;;;;;5031531;28;20053;-82
2023/06/19 12:59:21;;;;;;;10.73;5.32;;;26.20;96.10;;;;;;5031207;28;20493;-82
2023/06/19 13:02:07;;;;;;;9.40;6.15;;;26.40;95.80;;;;;;5030784;28;20409;-80
2023/06/19 13:04:53;;;;;;;8.98;5.45;;;26.10;94.90;;;;;;5030481;28;20042;-81
2023/06/19 13:07:39;;;;;;;9.80;5.20;;;26.30;95.70;;;;;;5030488;28;20313;-82
2023/06/19 13:10:25;;;;;;;7.88;4.97;;;26.40;95.10;;;;;;5016509;28;20053;-78
2023/06/19 13:13:12;;;;;;;8.85;4.68;;;26.30;94.80;;;;;;5031560;28;20350;-83
2023/06/19 13:15:58;;;;;;;9.38;5.57;;;26.40;94.40;;;;;;5034002;28;20053;-82
2023/06/19 13:18:45;;;;;;;9.45;4.75;;;26.40;94.10;;;;;;5031805;28;20095;-85
2023/06/19 13:21:31;;;;;;;9.35;4.68;;;26.30;94.50;;;;;;5028140;28;20057;-78
2023/06/19 13:24:17;;;;;;;8.80;5.88;;;26.70;94.40;;;;;;5028726;28;20144;-80
2023/06/19 13:27:03;;;;;;;6.40;4.28;;;26.50;93.90;;;;;;5015613;28;20057;-77
2023/06/19 13:29:49;;;;;;;8.77;5.50;;;26.60;93.80;;;;;;5030918;28;20085;-79
2023/06/19 13:32:35;;;;;;;11.20;6.00;;;26.90;93.40;;;;;;5029926;28;20045;-79
2023/06/19 13:35:21;;;;;;;11.55;5.25;;;26.90;93.00;;;;;;5032527;28;20053;-79
2023/06/19 13:38:11;;;;;;;8.80;6.03;;;27.10;93.40;;;;;;5016744;28;20049;-79
2023/06/19 13:40:57;;;;;;;6.85;4.47;;;27.00;93.30;;;;;;5029883;28;20473;-85
2023/06/19 13:43:45;;;;;;;11.68;7.38;;;27.50;93.80;;;;;;5030794;28;20467;-80
2023/06/19 13:46:31;;;;;;;9.10;5.90;;;27.20;93.30;;;;;;5029610;28;20053;-78
2023/06/19 13:49:17;;;;;;;10.68;6.43;;;27.20;93.00;;;;;;5029160;28;20057;-79
2023/06/19 13:52:05;;;;;;;10.70;6.97;;;27.10;92.60;;;;;;5033558;28;20053;-83
2023/06/19 13:54:52;;;;;;;9.32;6.07;;;27.40;92.70;;;;;;5031267;28;20057;-79
2023/06/19 13:57:40;;;;;;;8.02;4.93;;;27.60;92.60;;;;;;5032107;28;20127;-85
2023/06/19 14:00:26;;;;;;;12.10;7.55;;;27.70;92.70;;;;;;5029173;28;20057;-80
2023/06/19 14:03:13;;;;;;;9.45;6.00;;;28.00;92.30;;;;;;5029938;28;20049;-80
2023/06/19 14:05:59;;;;;;;9.70;5.53;;;27.80;91.80;;;;;;5030876;28;20049;-82
2023/06/19 14:08:45;;;;;;;8.38;5.25;;;28.00;91.80;;;;;;5030953;28;20053;-84
2023/06/19 14:11:32;;;;;;;6.50;4.55;;;28.20;91.50;;;;;;5028716;28;20420;-81
2023/06/19 14:14:18;;;;;;;9.82;5.15;;;28.50;91.60;;;;;;5029541;28;20091;-81
2023/06/19 14:17:04;;;;;;;11.30;5.53;;;28.50;90.60;;;;;;5028438;28;20046;-86